Time;durP1;ratioP1;P1;durP2;ratioP2;P2;SDS_P1;SDS_P2;PMS_P1;PMS_P2;Temp;Humidity;BMP_temperature;BMP_pressure;BME280_temperature;BME280_humidity;BME280_pressure;Samples;Min_cycle;Max_cycle;Signal;HPM_P1;HPM_P2
2022/05/15 00:02:14;;;;;;;9.13;1.95;;;18.50;83.30;;;;;;5096193;28;20035;-63
2022/05/15 00:04:40;;;;;;;2.25;1.50;;;18.50;82.60;;;;;;5096083;28;20024;-67
2022/05/15 00:07:06;;;;;;;5.85;1.88;;;18.60;81.50;;;;;;5095915;28;20055;-67
2022/05/15 00:09:33;;;;;;;5.53;1.90;;;18.70;81.10;;;;;;5095808;28;20068;-64
2022/05/15 00:11:59;;;;;;;6.85;2.47;;;18.70;81.10;;;;;;5096423;28;20032;-64
2022/05/15 00:14:25;;;;;;;3.50;1.65;;;18.80;80.20;;;;;;5096812;28;20034;-64
2022/05/15 00:16:51;;;;;;;3.88;1.75;;;18.80;80.10;;;;;;5096120;28;20081;-64
2022/05/15 00:19:17;;;;;;;3.85;1.77;;;18.90;79.90;;;;;;5096284;28;20508;-65
2022/05/15 00:21:42;;;;;;;4.32;1.98;;;19.00;79.30;;;;;;5096055;28;20047;-64
2022/05/15 00:24:09;;;;;;;9.90;2.38;;;19.00;79.50;;;;;;5096131;28;20033;-64
2022/05/15 00:26:36;;;;;;;5.00;3.38;;;18.90;79.20;;;;;;5096353;28;20024;-64
2022/05/15 00:29:02;;;;;;;4.63;2.88;;;18.90;79.50;;;;;;5095800;28;20028;-64
2022/05/15 00:31:28;;;;;;;9.25;2.80;;;19.00;79.80;;;;;;5095482;28;20174;-64
2022/05/15 00:33:54;;;;;;;5.22;2.92;;;18.90;79.70;;;;;;5095883;28;20042;-64
2022/05/15 00:36:20;;;;;;;5.63;2.92;;;18.80;80.00;;;;;;5095743;28;20055;-64
2022/05/15 00:38:45;;;;;;;5.35;2.75;;;18.60;80.90;;;;;;5095585;28;20016;-63
2022/05/15 00:41:12;;;;;;;4.85;2.75;;;18.50;81.80;;;;;;5095580;28;20024;-64
2022/05/15 00:43:56;;;;;;;7.43;3.17;;;18.40;82.10;;;;;;5094739;28;20508;-64
2022/05/15 00:46:28;;;;;;;4.70;2.58;;;18.30;82.40;;;;;;5095770;28;20103;-64
2022/05/15 00:48:56;;;;;;;6.07;2.70;;;18.20;82.60;;;;;;5095571;28;20065;-64
2022/05/15 00:51:28;;;;;;;5.50;2.50;;;18.20;83.10;;;;;;5095388;28;20036;-64
2022/05/15 00:54:03;;;;;;;6.88;3.22;;;18.10;83.10;;;;;;5095067;28;20020;-64
2022/05/15 00:56:33;;;;;;;6.93;2.88;;;18.10;83.10;;;;;;5094944;28;20023;-64
2022/05/15 00:59:04;;;;;;;5.68;2.90;;;18.10;83.30;;;;;;5092790;28;20035;-64
2022/05/15 01:01:29;;;;;;;5.25;2.72;;;18.00;83.50;;;;;;5092338;28;20138;-66
2022/05/15 01:03:55;;;;;;;5.10;2.33;;;18.00;83.70;;;;;;5092737;28;20889;-64
2022/05/15 01:06:21;;;;;;;7.18;3.28;;;18.00;83.70;;;;;;5094582;28;20054;-64
2022/05/15 01:08:47;;;;;;;12.80;3.40;;;17.90;83.80;;;;;;5094597;28;20410;-64
2022/05/15 01:11:17;;;;;;;6.18;3.22;;;17.90;83.70;;;;;;5095011;28;20379;-64
2022/05/15 01:13:45;;;;;;;7.70;3.17;;;17.90;83.80;;;;;;5094838;28;20028;-64
2022/05/15 01:16:12;;;;;;;6.72;2.78;;;17.90;83.50;;;;;;5094952;28;20039;-64
2022/05/15 01:18:39;;;;;;;6.68;3.95;;;17.90;83.80;;;;;;5094741;28;20028;-64
2022/05/15 01:21:22;;;;;;;4.68;2.90;;;17.90;83.90;;;;;;5094532;28;20496;-64
2022/05/15 01:23:49;;;;;;;5.63;3.38;;;17.90;83.60;;;;;;5094659;28;20474;-64
2022/05/15 01:26:15;;;;;;;9.15;3.20;;;17.90;83.60;;;;;;5094619;28;20012;-64
2022/05/15 01:28:41;;;;;;;6.70;3.03;;;17.90;83.40;;;;;;5093981;28;20390;-64
2022/05/15 01:31:07;;;;;;;5.88;2.72;;;17.90;83.90;;;;;;5094364;28;20138;-66
2022/05/15 01:33:32;;;;;;;4.43;3.00;;;17.80;83.70;;;;;;5094337;28;20470;-64
2022/05/15 01:35:58;;;;;;;12.00;3.25;;;17.80;83.50;;;;;;5094359;28;20478;-65
2022/05/15 01:38:23;;;;;;;6.82;2.65;;;17.90;83.80;;;;;;5094362;28;20024;-67
2022/05/15 01:40:50;;;;;;;7.32;2.70;;;17.90;83.50;;;;;;5094418;28;20081;-64
2022/05/15 01:43:16;;;;;;;6.55;3.20;;;17.80;83.40;;;;;;5094664;28;20394;-64
2022/05/15 01:45:42;;;;;;;7.03;2.58;;;17.80;83.60;;;;;;5094188;28;20020;-64
2022/05/15 01:48:08;;;;;;;4.43;2.90;;;17.70;84.80;;;;;;5094314;28;20038;-64
2022/05/15 01:50:34;;;;;;;6.57;3.47;;;17.60;84.00;;;;;;5094334;28;20093;-64
2022/05/15 01:53:00;;;;;;;5.18;2.83;;;17.60;84.10;;;;;;5094084;28;20024;-64
2022/05/15 01:55:25;;;;;;;5.88;2.78;;;17.70;84.20;;;;;;5094323;28;20028;-65
2022/05/15 01:57:51;;;;;;;7.40;2.45;;;17.60;83.70;;;;;;5094035;28;20039;-64
2022/05/15 02:00:24;;;;;;;6.95;2.53;;;17.60;85.10;;;;;;5094212;28;20023;-64
2022/05/15 02:02:50;;;;;;;;;;;17.60;84.00;;;;;;5094501;28;20026;-64
2022/05/15 02:05:17;;;;;;;6.97;2.22;;;17.70;83.90;;;;;;5093686;28;19982;-64
2022/05/15 02:07:43;;;;;;;3.53;1.77;;;17.70;84.00;;;;;;5093988;28;20111;-64
2022/05/15 02:10:10;;;;;;;4.40;1.70;;;17.80;83.80;;;;;;5093731;28;20467;-64
2022/05/15 02:12:36;;;;;;;19.17;3.45;;;17.80;83.10;;;;;;5093822;28;20370;-65
2022/05/15 02:15:03;;;;;;;6.35;2.72;;;17.80;82.90;;;;;;5093780;28;20035;-64
2022/05/15 02:17:29;;;;;;;4.50;2.63;;;17.80;83.10;;;;;;5094007;28;20056;-64
2022/05/15 02:19:55;;;;;;;5.70;2.85;;;17.70;82.90;;;;;;5093746;28;20409;-64
2022/05/15 02:22:21;;;;;;;7.38;2.88;;;17.70;83.00;;;;;;5093765;28;20036;-64
2022/05/15 02:24:47;;;;;;;3.13;2.28;;;17.60;83.20;;;;;;5093485;28;20397;-65
2022/05/15 02:27:12;;;;;;;8.10;3.45;;;17.50;84.30;;;;;;5093806;28;20021;-67
2022/05/15 02:29:38;;;;;;;7.53;2.70;;;17.50;84.00;;;;;;5093585;28;20044;-64
2022/05/15 02:32:04;;;;;;;6.90;2.80;;;17.50;83.70;;;;;;5093617;28;20016;-65
2022/05/15 02:34:30;;;;;;;8.07;2.80;;;17.50;83.90;;;;;;5093378;28;20153;-64
2022/05/15 02:36:56;;;;;;;4.22;2.70;;;17.50;83.60;;;;;;5093392;28;20443;-64
2022/05/15 02:39:22;;;;;;;4.28;2.47;;;17.50;83.40;;;;;;5092929;28;20059;-64
2022/05/15 02:41:47;;;;;;;7.15;2.97;;;17.50;83.40;;;;;;5092996;28;20024;-66
2022/05/15 02:44:13;;;;;;;6.00;2.85;;;17.40;83.70;;;;;;5093402;28;20020;-64
2022/05/15 02:46:39;;;;;;;3.58;2.90;;;17.50;83.40;;;;;;5093279;28;20492;-64
2022/05/15 02:51:49;;;;;;;7.95;3.05;;;17.40;83.90;;;;;;5093351;28;20086;-64
2022/05/15 02:54:15;;;;;;;5.82;3.03;;;17.40;84.20;;;;;;5093237;28;20028;-67
2022/05/15 02:56:41;;;;;;;7.88;2.95;;;17.30;83.50;;;;;;5093291;28;20031;-64
2022/05/15 02:59:09;;;;;;;12.18;3.03;;;17.30;83.70;;;;;;5092986;28;20031;-64
2022/05/15 03:01:35;;;;;;;8.63;3.53;;;17.30;84.50;;;;;;5092804;28;20116;-64
2022/05/15 03:04:01;;;;;;;4.80;2.78;;;17.20;85.00;;;;;;5093015;28;20484;-67
2022/05/15 03:06:27;;;;;;;6.30;3.00;;;17.10;85.40;;;;;;5092504;28;20032;-64
2022/05/15 03:08:53;;;;;;;7.28;3.10;;;17.00;85.60;;;;;;5092792;28;20486;-64
2022/05/15 03:11:19;;;;;;;5.95;2.72;;;17.00;85.90;;;;;;5092836;28;20039;-65
2022/05/15 03:13:46;;;;;;;9.85;2.97;;;17.00;85.60;;;;;;5093180;28;20016;-64
2022/05/15 03:16:13;;;;;;;9.13;3.03;;;17.00;85.70;;;;;;5093019;28;20020;-64
2022/05/15 03:18:49;;;;;;;5.35;3.03;;;17.10;85.40;;;;;;5093070;28;20025;-64
2022/05/15 03:21:28;;;;;;;4.18;2.53;;;17.00;85.40;;;;;;5092985;28;20071;-63
2022/05/15 03:24:01;;;;;;;7.43;2.92;;;17.00;86.30;;;;;;5092874;28;20107;-67
2022/05/15 03:26:28;;;;;;;3.45;2.35;;;17.00;85.80;;;;;;5092898;28;20056;-64
2022/05/15 03:28:54;;;;;;;6.50;2.92;;;17.00;85.30;;;;;;5092652;28;20052;-64
2022/05/15 03:31:20;;;;;;;4.40;2.75;;;17.00;85.50;;;;;;5092818;28;20040;-64
2022/05/15 03:33:47;;;;;;;5.25;2.55;;;17.00;85.20;;;;;;5092876;28;20016;-64
2022/05/15 03:36:16;;;;;;;3.55;2.70;;;17.00;85.70;;;;;;5092864;28;20036;-64
2022/05/15 03:38:44;;;;;;;6.95;2.65;;;17.00;85.90;;;;;;5092755;28;20076;-64
2022/05/15 03:41:10;;;;;;;7.53;2.80;;;17.00;86.60;;;;;;5092710;28;20029;-64
2022/05/15 03:43:37;;;;;;;3.05;2.42;;;17.00;85.60;;;;;;5092871;28;20054;-64
2022/05/15 03:46:04;;;;;;;6.78;2.58;;;17.00;85.40;;;;;;5092573;28;20020;-64
2022/05/15 03:48:30;;;;;;;7.25;2.60;;;16.90;86.50;;;;;;5092819;28;20028;-67
2022/05/15 03:50:56;;;;;;;4.05;2.40;;;16.90;85.40;;;;;;5092414;28;20028;-67
2022/05/15 03:53:24;;;;;;;5.57;2.88;;;17.00;85.10;;;;;;5092672;28;20024;-67
2022/05/15 03:55:51;;;;;;;5.20;2.95;;;16.90;86.10;;;;;;5092235;28;20027;-64
2022/05/15 03:58:17;;;;;;;7.35;2.50;;;16.90;85.70;;;;;;5092531;28;20020;-63
2022/05/15 04:00:42;;;;;;;4.97;2.47;;;16.90;85.10;;;;;;5092552;28;20024;-64
2022/05/15 04:03:08;;;;;;;8.93;2.97;;;16.90;84.60;;;;;;5092046;28;20099;-64
2022/05/15 04:05:34;;;;;;;5.03;2.10;;;16.90;84.50;;;;;;5092565;28;20028;-64
2022/05/15 04:08:00;;;;;;;5.90;2.70;;;16.90;85.90;;;;;;5092127;28;20047;-67
2022/05/15 04:10:26;;;;;;;6.20;2.63;;;16.90;85.30;;;;;;5092193;28;20032;-64
2022/05/15 04:12:52;;;;;;;5.20;2.58;;;16.90;85.20;;;;;;5092206;28;20488;-67
2022/05/15 04:15:18;;;;;;;5.65;3.00;;;16.90;85.10;;;;;;5092483;28;20127;-67
2022/05/15 04:17:46;;;;;;;6.85;2.78;;;17.00;84.90;;;;;;5092766;28;20466;-63
2022/05/15 04:20:14;;;;;;;4.38;2.63;;;16.90;85.70;;;;;;5095442;28;20081;-64
2022/05/15 04:22:40;;;;;;;4.43;2.70;;;17.00;85.70;;;;;;5096195;28;20020;-64
2022/05/15 04:25:06;;;;;;;7.20;2.65;;;16.90;85.80;;;;;;5095817;28;20050;-64
2022/05/15 04:27:32;;;;;;;5.78;2.97;;;17.00;85.40;;;;;;5095837;28;20024;-64
2022/05/15 04:29:57;;;;;;;3.40;2.55;;;17.00;85.30;;;;;;5095973;28;20435;-67
2022/05/15 04:32:23;;;;;;;4.60;2.72;;;17.10;84.90;;;;;;5095702;28;20020;-64
2022/05/15 04:34:49;;;;;;;7.88;3.08;;;17.10;84.80;;;;;;5095716;28;20398;-67
2022/05/15 04:37:14;;;;;;;7.88;2.78;;;17.20;84.80;;;;;;5095563;28;20363;-64
2022/05/15 04:39:41;;;;;;;7.30;2.95;;;17.20;85.00;;;;;;5095506;28;20060;-64
2022/05/15 04:42:07;;;;;;;4.72;2.80;;;17.20;85.80;;;;;;5095557;28;20027;-64
2022/05/15 04:44:33;;;;;;;8.70;2.78;;;17.20;85.10;;;;;;5095679;28;20028;-64
2022/05/15 04:46:58;;;;;;;7.28;2.88;;;17.20;84.60;;;;;;5095292;28;20077;-65
2022/05/15 04:49:24;;;;;;;10.18;2.53;;;17.30;84.80;;;;;;5095359;28;20500;-64
2022/05/15 04:51:50;;;;;;;8.40;3.10;;;17.30;84.40;;;;;;5095219;28;20028;-65
2022/05/15 04:54:16;;;;;;;5.07;3.03;;;17.30;84.40;;;;;;5095278;28;20016;-64
2022/05/15 04:56:41;;;;;;;7.80;2.63;;;17.40;84.50;;;;;;5095053;28;20028;-63
2022/05/15 04:59:07;;;;;;;4.70;2.80;;;17.50;84.80;;;;;;5095123;28;20020;-66
2022/05/15 05:01:33;;;;;;;7.03;2.85;;;17.50;85.60;;;;;;5095186;28;20039;-64
2022/05/15 05:03:59;;;;;;;6.90;2.63;;;17.60;85.30;;;;;;5094848;28;20478;-65
2022/05/15 05:06:26;;;;;;;5.63;2.90;;;17.60;85.20;;;;;;5095068;28;20016;-64
2022/05/15 05:08:53;;;;;;;5.65;2.40;;;17.70;85.40;;;;;;5094917;28;20406;-64
2022/05/15 05:11:19;;;;;;;5.93;2.40;;;17.80;84.40;;;;;;5094913;28;20043;-67
2022/05/15 05:13:44;;;;;;;4.68;2.15;;;18.00;83.70;;;;;;5094924;28;20028;-64
2022/05/15 05:16:10;;;;;;;5.25;2.05;;;18.00;83.70;;;;;;5094887;28;20020;-64
2022/05/15 05:18:36;;;;;;;4.15;2.15;;;18.10;83.60;;;;;;5094975;28;20493;-64
2022/05/15 05:21:03;;;;;;;9.90;1.73;;;18.20;83.30;;;;;;5095144;28;20016;-65
2022/05/15 05:23:29;;;;;;;3.05;1.80;;;18.30;82.70;;;;;;5094448;28;20031;-64
2022/05/15 05:25:55;;;;;;;3.33;2.10;;;18.40;82.90;;;;;;5092996;28;20020;-64
2022/05/15 05:28:21;;;;;;;4.45;1.77;;;18.50;82.50;;;;;;5093032;28;20020;-63
2022/05/15 05:30:47;;;;;;;4.10;1.95;;;18.60;82.10;;;;;;5092609;28;20039;-63
2022/05/15 05:33:13;;;;;;;4.82;2.17;;;18.70;82.10;;;;;;5094713;28;20020;-65
2022/05/15 05:35:40;;;;;;;4.35;1.75;;;18.80;82.00;;;;;;5094428;28;20074;-64
2022/05/15 05:38:06;;;;;;;3.47;1.92;;;18.80;81.30;;;;;;5094605;28;20031;-64
2022/05/15 05:40:32;;;;;;;3.78;1.80;;;18.90;80.70;;;;;;5094601;28;20028;-65
2022/05/15 05:42:58;;;;;;;4.55;1.90;;;19.00;79.10;;;;;;5094426;28;20031;-67
2022/05/15 05:45:24;;;;;;;4.55;1.98;;;19.00;79.20;;;;;;5094274;28;20073;-65
2022/05/15 05:47:50;;;;;;;5.72;1.48;;;19.10;79.20;;;;;;5094319;28;20416;-64
2022/05/15 05:50:19;;;;;;;3.33;1.73;;;19.20;78.90;;;;;;5094063;28;20032;-65
2022/05/15 05:52:45;;;;;;;8.90;2.22;;;19.20;78.70;;;;;;5094362;28;20115;-66
2022/05/15 05:55:14;;;;;;;2.58;1.88;;;19.30;78.40;;;;;;5094111;28;20059;-64
2022/05/15 05:57:40;;;;;;;7.28;1.85;;;19.40;78.20;;;;;;5093860;28;20157;-64
2022/05/15 06:00:09;;;;;;;4.78;1.83;;;19.50;78.10;;;;;;5094341;28;20028;-65
2022/05/15 06:02:35;;;;;;;10.30;1.80;;;19.60;77.30;;;;;;5093911;28;20027;-67
2022/05/15 06:05:00;;;;;;;5.07;1.88;;;19.60;77.50;;;;;;5093868;28;20038;-66
2022/05/15 06:07:27;;;;;;;3.13;2.03;;;19.70;77.10;;;;;;5093918;28;20019;-67
2022/05/15 06:09:54;;;;;;;6.20;1.83;;;19.80;77.20;;;;;;5092462;28;20084;-65
2022/05/15 06:12:22;;;;;;;5.72;2.30;;;19.90;76.80;;;;;;5093806;28;20028;-67
2022/05/15 06:14:49;;;;;;;7.65;2.00;;;20.00;76.10;;;;;;5091434;28;20107;-67
2022/05/15 06:17:19;;;;;;;3.95;1.95;;;20.10;76.00;;;;;;5093037;28;20106;-67
2022/05/15 06:19:44;;;;;;;5.78;1.92;;;20.20;75.60;;;;;;5093467;28;20023;-67
2022/05/15 06:22:10;;;;;;;4.05;2.03;;;20.30;74.80;;;;;;5093487;28;20394;-66
2022/05/15 06:24:36;;;;;;;7.82;2.13;;;20.40;74.60;;;;;;5093366;28;20020;-66
2022/05/15 06:27:03;;;;;;;2.97;1.90;;;20.50;75.50;;;;;;5093383;28;20031;-67
2022/05/15 06:29:29;;;;;;;3.72;2.13;;;20.50;74.90;;;;;;5093499;28;20024;-66
2022/05/15 06:31:55;;;;;;;5.88;2.20;;;20.60;73.90;;;;;;5093338;28;20039;-66
2022/05/15 06:34:21;;;;;;;5.88;2.10;;;20.70;73.90;;;;;;5093121;28;20020;-65
2022/05/15 06:36:47;;;;;;;4.38;2.00;;;20.80;73.90;;;;;;5093416;28;20111;-66
2022/05/15 06:39:14;;;;;;;2.95;2.00;;;20.80;73.40;;;;;;5093463;28;20443;-65
2022/05/15 06:41:39;;;;;;;3.20;1.90;;;20.90;73.10;;;;;;5092254;28;20024;-65
2022/05/15 06:44:06;;;;;;;3.33;2.40;;;21.00;72.90;;;;;;5093152;28;20091;-66
2022/05/15 06:46:32;;;;;;;3.78;2.30;;;21.10;73.90;;;;;;5092756;28;20058;-67
2022/05/15 06:48:58;;;;;;;6.43;2.20;;;21.10;73.50;;;;;;5093138;28;20020;-65
2022/05/15 06:51:24;;;;;;;3.67;2.47;;;21.20;72.30;;;;;;5092321;28;20105;-65
2022/05/15 06:53:50;;;;;;;7.38;3.45;;;21.30;72.50;;;;;;5091130;28;20024;-66
2022/05/15 06:59:02;;;;;;;3.58;1.77;;;21.40;71.60;;;;;;5092478;28;20558;-65
2022/05/15 07:01:29;;;;;;;4.88;2.20;;;21.50;71.30;;;;;;5092114;28;20420;-64
2022/05/15 07:03:55;;;;;;;5.88;2.53;;;21.60;71.20;;;;;;5091580;28;20474;-64
2022/05/15 07:06:21;;;;;;;3.72;2.08;;;21.70;70.60;;;;;;5092074;28;20024;-64
2022/05/15 07:08:48;;;;;;;3.50;2.10;;;21.80;70.90;;;;;;5092475;28;20136;-65
2022/05/15 07:11:14;;;;;;;2.58;1.95;;;21.80;70.20;;;;;;5092612;28;20430;-64
2022/05/15 07:13:41;;;;;;;3.95;2.45;;;21.90;69.80;;;;;;5092579;28;20054;-65
2022/05/15 07:16:08;;;;;;;4.25;2.38;;;22.00;70.00;;;;;;5092517;28;20028;-65
2022/05/15 07:18:35;;;;;;;2.97;2.15;;;22.10;69.70;;;;;;5092411;28;20466;-64
2022/05/15 07:21:01;;;;;;;3.63;2.25;;;22.20;69.30;;;;;;5091455;28;20031;-66
2022/05/15 07:23:27;;;;;;;6.90;2.45;;;22.30;69.00;;;;;;5092082;28;20490;-66
2022/05/15 07:25:54;;;;;;;4.18;2.22;;;22.40;68.00;;;;;;5092559;28;20020;-65
2022/05/15 07:28:20;;;;;;;2.63;2.25;;;22.40;68.10;;;;;;5092201;28;20110;-64
2022/05/15 07:30:46;;;;;;;6.30;3.05;;;22.50;68.00;;;;;;5092632;28;20043;-65
2022/05/15 07:33:12;;;;;;;9.65;3.58;;;22.60;68.00;;;;;;5092895;28;20386;-65
2022/05/15 07:35:37;;;;;;;4.10;2.70;;;22.60;67.90;;;;;;5092871;28;20524;-65
2022/05/15 07:38:03;;;;;;;8.32;2.70;;;22.70;66.80;;;;;;5092670;28;20020;-65
2022/05/15 07:40:29;;;;;;;4.78;2.53;;;22.80;66.90;;;;;;5092392;28;20495;-65
2022/05/15 07:42:54;;;;;;;7.53;2.20;;;22.80;67.10;;;;;;5092258;28;20032;-64
2022/05/15 07:45:20;;;;;;;4.72;2.33;;;22.90;66.60;;;;;;5092675;28;20492;-65
2022/05/15 07:47:46;;;;;;;5.30;2.40;;;23.00;66.50;;;;;;5092658;28;20035;-65
2022/05/15 07:50:12;;;;;;;3.65;2.40;;;23.10;65.40;;;;;;5092319;28;20032;-65
2022/05/15 07:52:39;;;;;;;9.35;2.00;;;23.20;65.10;;;;;;5092642;28;20016;-65
2022/05/15 07:55:08;;;;;;;5.88;2.20;;;23.20;65.60;;;;;;5069646;28;20051;-64
2022/05/15 07:57:34;;;;;;;8.60;2.50;;;23.30;64.50;;;;;;5095397;28;20482;-65
2022/05/15 08:00:03;;;;;;;3.30;2.10;;;23.30;64.40;;;;;;5095894;28;20020;-64
2022/05/15 08:02:29;;;;;;;7.00;2.35;;;23.40;63.90;;;;;;5096505;28;20385;-64
2022/05/15 08:10:23;;;;;;;6.55;3.00;;;23.70;64.90;;;;;;5095756;28;20093;-65
2022/05/15 08:12:48;;;;;;;5.03;2.55;;;23.70;63.40;;;;;;5094815;28;20518;-66
2022/05/15 08:15:14;;;;;;;5.05;2.30;;;23.80;63.50;;;;;;5093465;28;20024;-65
2022/05/15 08:17:39;;;;;;;23.85;7.55;;;23.90;63.20;;;;;;5093812;28;20054;-65
2022/05/15 08:25:42;;;;;;;6.95;2.80;;;24.10;62.20;;;;;;5096601;28;20039;-63
2022/05/15 08:28:08;;;;;;;5.70;2.70;;;24.20;63.10;;;;;;5094487;28;20081;-64
2022/05/15 08:30:34;;;;;;;10.50;4.72;;;24.30;63.00;;;;;;5092975;28;20040;-64
2022/05/15 08:33:00;;;;;;;4.10;2.45;;;24.40;63.60;;;;;;5093781;28;20103;-64
2022/05/15 08:35:27;;;;;;;5.65;2.10;;;24.50;62.20;;;;;;5095838;28;20533;-63
2022/05/15 08:37:53;;;;;;;4.80;2.33;;;24.60;62.10;;;;;;5096273;28;20382;-63
2022/05/15 08:40:24;;;;;;;6.32;2.33;;;24.70;61.70;;;;;;5095630;28;20032;-63
2022/05/15 08:42:54;;;;;;;;;;;24.70;60.50;;;;;;5096068;28;20024;-63
2022/05/15 08:45:24;;;;;;;6.47;1.90;;;24.80;59.50;;;;;;5095591;28;20309;-63
2022/05/15 08:48:01;;;;;;;4.38;2.10;;;24.90;59.20;;;;;;5095748;28;20032;-63
2022/05/15 08:50:32;;;;;;;4.00;2.13;;;25.00;58.90;;;;;;5095678;28;20482;-63
2022/05/15 08:53:02;;;;;;;5.85;2.08;;;25.00;58.50;;;;;;5094499;28;20567;-64
2022/05/15 08:55:49;;;;;;;3.05;1.92;;;25.10;59.20;;;;;;5092973;28;20474;-65
2022/05/15 08:58:25;;;;;;;3.15;2.20;;;25.20;58.80;;;;;;5092753;28;20020;-64
2022/05/15 09:00:52;;;;;;;3.80;2.35;;;25.20;59.00;;;;;;5094965;28;20466;-64
2022/05/15 09:03:22;;;;;;;5.78;1.90;;;25.30;58.90;;;;;;5095310;28;20111;-63
2022/05/15 09:06:02;;;;;;;4.68;1.70;;;25.40;59.40;;;;;;5094660;28;20081;-63
2022/05/15 09:08:45;;;;;;;6.53;1.77;;;25.50;57.80;;;;;;5094820;28;20032;-64
2022/05/15 09:11:14;;;;;;;5.13;1.88;;;25.60;57.50;;;;;;5095392;28;20512;-64
2022/05/15 09:13:52;;;;;;;2.88;1.60;;;25.70;57.40;;;;;;5095281;28;20394;-63
2022/05/15 09:16:26;;;;;;;2.15;1.63;;;25.70;55.30;;;;;;5094626;28;20032;-64
2022/05/15 09:18:59;;;;;;;3.78;1.88;;;25.80;56.20;;;;;;5094976;28;20024;-63
2022/05/15 09:21:25;;;;;;;7.97;2.78;;;25.80;54.80;;;;;;5094762;28;20028;-63
2022/05/15 09:23:54;;;;;;;4.82;2.15;;;25.90;55.30;;;;;;5094671;28;20035;-63
2022/05/15 09:26:30;;;;;;;4.07;2.10;;;26.00;55.30;;;;;;5094911;28;20024;-63
2022/05/15 09:29:00;;;;;;;6.53;1.65;;;26.00;55.60;;;;;;5094934;28;20031;-63
2022/05/15 09:31:42;;;;;;;5.70;1.85;;;26.10;54.80;;;;;;5094652;28;20032;-63
2022/05/15 09:34:28;;;;;;;7.43;2.27;;;26.20;54.90;;;;;;5094672;28;20020;-63
2022/05/15 09:38:26;;;;;;;9.07;1.98;;;26.20;52.60;;;;;;5094857;28;20398;-64
2022/05/15 09:39:43;;;;;;;4.75;1.92;;;26.30;54.50;;;;;;5094600;28;20028;-64
2022/05/15 09:45:17;;;;;;;2.85;1.70;;;26.40;53.30;;;;;;5092076;28;20050;-63
2022/05/15 09:47:47;;;;;;;2.15;1.88;;;26.40;54.40;;;;;;5091658;28;20032;-63
2022/05/15 09:50:43;;;;;;;3.33;2.00;;;26.50;55.90;;;;;;5093725;28;20036;-62
2022/05/15 09:53:21;;;;;;;5.32;1.85;;;26.60;54.30;;;;;;5094583;28;20038;-62
2022/05/15 09:56:15;;;;;;;3.45;1.55;;;26.70;54.10;;;;;;5094731;28;20466;-63
2022/05/15 09:58:52;;;;;;;2.47;1.67;;;26.80;53.30;;;;;;5093738;28;20107;-62
2022/05/15 10:01:48;;;;;;;5.03;1.90;;;26.90;52.80;;;;;;5093996;28;20024;-64
2022/05/15 10:04:24;;;;;;;5.13;2.25;;;26.90;52.40;;;;;;5091979;28;20060;-64
2022/05/15 10:06:57;;;;;;;3.60;2.10;;;27.00;52.20;;;;;;5091029;28;20591;-64
2022/05/15 10:09:31;;;;;;;2.17;1.70;;;27.10;53.00;;;;;;5091955;28;20040;-64
2022/05/15 10:12:23;;;;;;;4.72;1.88;;;27.20;53.30;;;;;;5094468;28;20564;-64
2022/05/15 10:14:54;;;;;;;2.70;1.67;;;27.30;52.60;;;;;;5094021;28;20028;-64
2022/05/15 10:17:23;;;;;;;2.97;1.90;;;27.40;53.50;;;;;;5093149;28;20024;-64
2022/05/15 10:20:02;;;;;;;5.18;2.03;;;27.50;54.20;;;;;;5094112;28;20374;-64
2022/05/15 10:22:57;;;;;;;5.40;2.40;;;27.60;53.60;;;;;;5093974;28;20024;-64
2022/05/15 10:25:42;;;;;;;5.88;2.10;;;27.60;50.20;;;;;;5087913;28;20475;-64
2022/05/15 10:28:23;;;;;;;5.75;1.80;;;27.70;48.70;;;;;;5093940;28;20107;-64
2022/05/15 10:31:18;;;;;;;2.67;1.73;;;27.70;49.40;;;;;;5093880;28;20090;-64
2022/05/15 10:33:48;;;;;;;9.40;2.42;;;27.70;50.60;;;;;;5093732;28;20378;-64
2022/05/15 10:36:39;;;;;;;2.83;1.65;;;27.80;50.10;;;;;;5094000;28;20549;-64
2022/05/15 10:39:27;;;;;;;4.68;1.90;;;27.80;50.40;;;;;;5093609;28;20024;-64
2022/05/15 10:42:02;;;;;;;2.65;1.73;;;28.00;52.10;;;;;;5093145;28;20033;-64
2022/05/15 10:45:08;;;;;;;5.35;2.10;;;28.10;50.60;;;;;;5092688;28;20028;-65
2022/05/15 10:48:06;;;;;;;4.32;2.10;;;28.20;50.10;;;;;;5092084;28;20043;-64
2022/05/15 10:50:50;;;;;;;5.20;1.90;;;28.30;49.70;;;;;;5078563;28;20135;-64
2022/05/15 10:59:44;;;;;;;3.30;2.00;;;28.60;50.40;;;;;;5090399;28;20382;-63
2022/05/15 11:02:42;;;;;;;3.63;2.05;;;28.60;48.00;;;;;;5090363;28;20386;-64
2022/05/15 11:05:28;;;;;;;7.90;2.83;;;28.70;49.10;;;;;;5092534;28;20032;-62
2022/05/15 11:07:54;;;;;;;3.60;1.75;;;28.70;50.00;;;;;;5092708;28;20024;-63
2022/05/15 11:10:31;;;;;;;2.63;1.73;;;28.80;47.30;;;;;;5091911;28;20203;-63
2022/05/15 11:13:09;;;;;;;10.15;1.83;;;28.80;48.40;;;;;;5092663;28;20024;-63
2022/05/15 11:15:49;;;;;;;4.50;2.00;;;28.80;47.90;;;;;;5092498;28;20040;-62
2022/05/15 11:18:33;;;;;;;5.43;2.03;;;28.90;47.30;;;;;;5092467;28;20028;-63
2022/05/15 11:21:05;;;;;;;2.70;2.05;;;28.80;48.60;;;;;;5092363;28;20036;-63
2022/05/15 11:23:43;;;;;;;5.15;2.28;;;28.90;46.80;;;;;;5090418;28;20048;-63
2022/05/15 11:26:26;;;;;;;3.88;2.28;;;28.80;47.70;;;;;;5089780;28;20024;-63
2022/05/15 11:28:55;;;;;;;6.47;2.15;;;28.80;48.40;;;;;;5092094;28;20028;-63
2022/05/15 11:31:28;;;;;;;5.38;2.55;;;28.80;47.80;;;;;;5095985;28;20036;-63
2022/05/15 11:33:56;;;;;;;5.90;1.98;;;28.80;46.50;;;;;;5096193;28;20061;-63
2022/05/15 11:36:22;;;;;;;4.82;2.00;;;28.70;48.00;;;;;;5096511;28;20517;-65
2022/05/15 11:38:54;;;;;;;3.80;2.25;;;28.70;48.90;;;;;;5096699;28;20115;-62
2022/05/15 11:41:34;;;;;;;4.32;1.85;;;28.80;49.50;;;;;;5096511;28;20089;-63
2022/05/15 11:44:13;;;;;;;4.22;2.03;;;28.80;49.50;;;;;;5096415;28;20031;-63
2022/05/15 11:46:45;;;;;;;3.40;2.05;;;28.90;50.70;;;;;;5096147;28;20028;-62
2022/05/15 11:49:16;;;;;;;4.57;2.03;;;29.00;48.90;;;;;;5096789;28;20478;-63
2022/05/15 11:51:42;;;;;;;4.82;2.10;;;29.00;48.60;;;;;;5096227;28;20032;-63
2022/05/15 11:54:26;;;;;;;3.38;2.22;;;29.10;47.50;;;;;;5096355;28;20039;-63
2022/05/15 11:56:57;;;;;;;5.25;2.00;;;29.10;48.00;;;;;;5096378;28;20032;-64
2022/05/15 11:59:26;;;;;;;5.60;2.42;;;29.10;45.70;;;;;;5096231;28;20030;-64
2022/05/15 12:02:02;;;;;;;5.47;2.10;;;29.10;47.40;;;;;;5096034;28;20436;-64
2022/05/15 12:04:33;;;;;;;5.43;2.00;;;29.10;48.20;;;;;;5096212;28;20470;-67
2022/05/15 12:06:59;;;;;;;;;;;29.00;45.20;;;;;;5096352;28;20119;-64
2022/05/15 12:09:39;;;;;;;4.18;1.90;;;29.00;46.50;;;;;;5095630;28;19995;-64
2022/05/15 12:12:23;;;;;;;3.30;2.10;;;29.00;47.20;;;;;;5095167;28;20545;-64
2022/05/15 12:15:11;;;;;;;4.00;1.83;;;29.10;46.30;;;;;;5093312;28;20836;-64
2022/05/15 12:17:43;;;;;;;7.60;2.25;;;29.10;45.50;;;;;;5093479;28;20030;-64
2022/05/15 12:20:16;;;;;;;2.60;1.75;;;29.20;46.30;;;;;;5095832;28;20028;-64
2022/05/15 12:22:52;;;;;;;3.83;1.92;;;29.20;46.90;;;;;;5096250;28;20424;-66
2022/05/15 12:25:22;;;;;;;6.57;2.30;;;29.20;46.50;;;;;;5096217;28;20367;-64
2022/05/15 12:27:54;;;;;;;2.67;1.83;;;29.30;43.60;;;;;;5095747;28;20035;-64
2022/05/15 12:30:22;;;;;;;;;;;29.30;42.20;;;;;;5095825;28;20062;-64
2022/05/15 12:32:52;;;;;;;5.65;1.90;;;29.30;42.40;;;;;;5095837;28;19946;-64
2022/05/15 12:35:23;;;;;;;4.38;1.83;;;29.30;43.80;;;;;;5095420;28;20028;-64
2022/05/15 12:37:55;;;;;;;4.72;1.90;;;29.30;43.90;;;;;;5095300;28;20058;-64
2022/05/15 12:40:29;;;;;;;6.35;1.90;;;29.30;42.50;;;;;;5094514;28;20024;-64
2022/05/15 12:42:57;;;;;;;4.57;2.03;;;29.30;43.10;;;;;;5095575;28;20024;-65
2022/05/15 12:45:23;;;;;;;2.80;2.00;;;29.40;44.30;;;;;;5095229;28;20059;-65
2022/05/15 12:48:09;;;;;;;4.70;1.95;;;29.30;42.50;;;;;;5095285;28;20439;-65
2022/05/15 12:50:56;;;;;;;2.67;1.55;;;29.30;44.80;;;;;;5095110;28;20120;-64
2022/05/15 12:53:32;;;;;;;3.25;1.80;;;29.30;43.30;;;;;;5094983;28;20039;-65
2022/05/15 12:56:12;;;;;;;5.88;2.00;;;29.40;42.70;;;;;;5095908;28;20024;-66
2022/05/15 12:58:39;;;;;;;4.95;1.90;;;29.30;44.30;;;;;;5093617;28;20028;-65
2022/05/15 13:01:05;;;;;;;7.45;1.90;;;29.40;43.50;;;;;;5092840;28;20028;-65
2022/05/15 13:03:31;;;;;;;3.80;1.90;;;29.40;42.60;;;;;;5093702;28;20492;-65
2022/05/15 13:06:00;;;;;;;5.40;1.83;;;29.40;41.90;;;;;;5095448;28;20024;-65
2022/05/15 13:08:41;;;;;;;2.50;1.98;;;29.40;42.00;;;;;;5095177;28;20028;-65
2022/05/15 13:11:06;;;;;;;2.97;1.65;;;29.40;44.50;;;;;;5095173;28;20404;-65
2022/05/15 13:13:37;;;;;;;2.55;1.77;;;29.50;45.60;;;;;;5094919;28;20028;-64
2022/05/15 13:16:05;;;;;;;6.20;1.90;;;29.50;44.50;;;;;;5094686;28;20039;-65
2022/05/15 13:18:34;;;;;;;5.18;1.88;;;29.60;44.30;;;;;;5095088;28;20043;-65
2022/05/15 13:21:06;;;;;;;4.50;1.70;;;29.60;43.90;;;;;;5094704;28;20027;-65
2022/05/15 13:23:36;;;;;;;3.45;1.85;;;29.60;45.80;;;;;;5092668;28;20020;-65
2022/05/15 13:26:06;;;;;;;3.10;1.70;;;29.70;45.60;;;;;;5091850;28;20550;-65
2022/05/15 13:28:32;;;;;;;6.28;1.90;;;29.70;44.20;;;;;;5092003;28;20397;-65